Time;durP1;ratioP1;P1;durP2;ratioP2;P2;SDS_P1;SDS_P2;PMS_P1;PMS_P2;Temp;Humidity;BMP_temperature;BMP_pressure;BME280_temperature;BME280_humidity;BME280_pressure;Samples;Min_cycle;Max_cycle;Signal;HPM_P1;HPM_P2
2022/04/02 00:01:05;;;;;;;1.27;0.60;;;17.10;52.00;;;;;;10374063;28;20034;-52
2022/04/02 00:06:06;;;;;;;1.73;0.40;;;17.10;52.00;;;;;;10374317;28;20057;-50
2022/04/02 00:11:07;;;;;;;0.93;0.50;;;17.00;52.00;;;;;;10374159;28;20088;-51
2022/04/02 00:16:08;;;;;;;1.60;0.52;;;17.10;51.90;;;;;;10356486;28;20033;-51
2022/04/02 00:21:09;;;;;;;0.95;0.60;;;17.00;51.80;;;;;;10373574;28;20069;-52
2022/04/02 00:26:21;;;;;;;0.63;0.40;;;17.00;51.80;;;;;;10373502;28;20541;-51
2022/04/02 00:31:22;;;;;;;1.58;0.47;;;17.00;51.70;;;;;;10373683;28;20030;-51
2022/04/02 00:36:22;;;;;;;0.50;0.40;;;17.00;51.70;;;;;;10373295;28;20120;-52
2022/04/02 00:41:23;;;;;;;0.50;0.50;;;17.10;51.60;;;;;;10373150;28;20049;-52
2022/04/02 00:46:24;;;;;;;3.20;1.02;;;17.00;51.60;;;;;;10373011;28;20113;-52
2022/04/02 00:51:26;;;;;;;1.48;0.65;;;17.00;51.60;;;;;;10372952;28;20065;-51
2022/04/02 00:56:27;;;;;;;1.08;0.50;;;17.00;51.60;;;;;;10364520;28;20030;-51
2022/04/02 01:01:27;;;;;;;0.43;0.40;;;17.00;51.60;;;;;;10390731;28;20065;-51
2022/04/02 01:06:31;;;;;;;1.08;0.50;;;17.00;51.60;;;;;;10413007;28;20128;-50
2022/04/02 01:11:40;;;;;;;1.33;0.57;;;17.00;51.50;;;;;;10371978;28;20057;-52
2022/04/02 01:16:41;;;;;;;1.23;0.50;;;17.00;51.50;;;;;;10407498;28;20030;-53
2022/04/02 01:21:49;;;;;;;0.60;0.50;;;17.00;51.40;;;;;;10412053;28;20041;-53
2022/04/02 01:26:49;;;;;;;0.60;0.30;;;17.00;51.40;;;;;;10381261;28;20120;-52
2022/04/02 01:31:50;;;;;;;2.40;0.50;;;17.00;51.40;;;;;;10380965;28;20026;-52
2022/04/02 01:36:51;;;;;;;1.90;0.75;;;17.00;51.30;;;;;;10412748;28;20038;-51
2022/04/02 01:41:51;;;;;;;0.90;0.45;;;17.00;51.30;;;;;;10380790;28;20112;-51
2022/04/02 01:46:52;;;;;;;2.40;0.50;;;17.00;51.30;;;;;;10411558;28;20140;-53
2022/04/02 01:51:53;;;;;;;1.77;0.60;;;17.00;51.20;;;;;;10388565;28;20526;-53
2022/04/02 01:56:53;;;;;;;1.20;0.60;;;17.00;51.10;;;;;;10373244;28;20137;-52
2022/04/02 02:01:54;;;;;;;0.82;0.45;;;17.00;51.20;;;;;;10410980;28;20113;-50
2022/04/02 02:06:55;;;;;;;1.15;0.30;;;17.00;51.30;;;;;;10412104;28;20105;-48
2022/04/02 02:11:56;;;;;;;0.90;0.40;;;17.00;51.10;;;;;;10410793;28;20045;-52
2022/04/02 02:16:57;;;;;;;0.60;0.40;;;17.00;51.00;;;;;;10411715;28;20514;-52
2022/04/02 02:21:58;;;;;;;1.17;0.50;;;17.10;51.00;;;;;;10410961;28;20098;-52
2022/04/02 02:26:59;;;;;;;0.70;0.38;;;17.10;50.90;;;;;;10380019;28;20038;-52
2022/04/02 02:31:59;;;;;;;0.50;0.50;;;17.10;50.70;;;;;;10393122;28;20026;-51
2022/04/02 02:37:00;;;;;;;1.45;0.70;;;17.10;50.70;;;;;;10377586;28;20563;-52
2022/04/02 02:42:01;;;;;;;1.13;0.40;;;17.10;50.80;;;;;;10377554;28;20132;-52
2022/04/02 02:47:02;;;;;;;1.13;0.40;;;17.10;50.80;;;;;;10377014;28;20032;-53
2022/04/02 02:52:03;;;;;;;0.85;0.40;;;17.10;50.80;;;;;;10377373;28;20030;-49
2022/04/02 02:57:04;;;;;;;0.75;0.40;;;17.10;50.70;;;;;;10359607;28;20481;-51
2022/04/02 03:02:05;;;;;;;1.33;0.50;;;17.00;50.70;;;;;;10390262;28;20036;-53
2022/04/02 03:07:05;;;;;;;1.20;0.50;;;17.10;50.60;;;;;;10376355;28;20030;-53
2022/04/02 03:12:07;;;;;;;0.75;0.40;;;17.00;50.70;;;;;;10374474;28;20462;-52
2022/04/02 03:17:09;;;;;;;0.75;0.30;;;17.10;50.70;;;;;;10379483;28;20033;-52
2022/04/02 03:22:10;;;;;;;0.73;0.40;;;17.10;50.50;;;;;;10407075;28;20108;-53
2022/04/02 03:27:10;;;;;;;0.50;0.30;;;17.20;50.30;;;;;;10403545;28;20109;-52
2022/04/02 03:32:11;;;;;;;0.57;0.40;;;17.20;50.20;;;;;;10354158;28;20079;-52
2022/04/02 03:37:13;;;;;;;0.65;0.30;;;17.20;50.40;;;;;;10372066;28;20034;-51
2022/04/02 03:42:14;;;;;;;0.90;0.40;;;17.20;50.40;;;;;;10373485;28;20040;-52
2022/04/02 03:47:15;;;;;;;0.60;0.32;;;17.20;50.40;;;;;;10373255;28;20360;-51
2022/04/02 03:52:16;;;;;;;0.50;0.30;;;17.20;50.90;;;;;;10372322;28;20088;-53
2022/04/02 03:57:17;;;;;;;0.73;0.40;;;17.20;50.30;;;;;;10362380;28;20069;-51
2022/04/02 04:02:18;;;;;;;1.73;0.68;;;17.10;50.50;;;;;;10410105;28;20040;-52
2022/04/02 04:07:19;;;;;;;0.43;0.30;;;17.10;50.40;;;;;;10394725;28;20374;-52
2022/04/02 04:12:20;;;;;;;1.02;0.38;;;17.10;50.50;;;;;;10377784;28;1043441;-51
2022/04/02 04:17:23;;;;;;;0.60;0.30;;;17.20;50.50;;;;;;10396353;28;20478;-52
2022/04/02 04:22:23;;;;;;;0.80;0.43;;;17.20;50.20;;;;;;10413702;28;20040;-51
2022/04/02 04:27:24;;;;;;;0.50;0.40;;;17.20;50.30;;;;;;10414490;28;20112;-53
2022/04/02 04:32:25;;;;;;;1.90;0.30;;;17.20;50.30;;;;;;10400897;28;20457;-53
2022/04/02 04:37:26;;;;;;;0.60;0.40;;;17.20;50.40;;;;;;10386279;28;20065;-53
2022/04/02 04:42:27;;;;;;;1.10;0.60;;;17.20;50.50;;;;;;10373102;28;20044;-52
2022/04/02 04:47:27;;;;;;;0.77;0.40;;;17.20;50.50;;;;;;10376839;28;20642;-52
2022/04/02 04:52:31;;;;;;;0.35;0.35;;;17.10;50.60;;;;;;10408917;28;20107;-53
2022/04/02 04:57:31;;;;;;;0.77;0.35;;;17.20;50.50;;;;;;10377370;28;20083;-52
2022/04/02 05:02:32;;;;;;;0.57;0.50;;;17.20;50.60;;;;;;10412726;28;20091;-52
2022/04/02 05:07:33;;;;;;;1.20;0.50;;;17.10;50.70;;;;;;10413396;28;20117;-53
2022/04/02 05:12:35;;;;;;;0.98;0.40;;;17.20;50.60;;;;;;10381084;28;20049;-52
2022/04/02 05:17:37;;;;;;;1.05;0.40;;;17.20;50.70;;;;;;10378602;28;20104;-52
2022/04/02 05:22:38;;;;;;;0.60;0.47;;;17.20;50.50;;;;;;10402610;28;20512;-53
2022/04/02 05:27:38;;;;;;;0.85;0.50;;;17.20;50.40;;;;;;10384223;28;20073;-54
2022/04/02 05:32:40;;;;;;;0.50;0.40;;;17.20;50.40;;;;;;10381377;28;20050;-51
2022/04/02 05:37:45;;;;;;;0.47;0.30;;;17.20;50.40;;;;;;10377194;28;20033;-52
2022/04/02 05:42:46;;;;;;;0.30;0.30;;;17.20;50.60;;;;;;10411999;28;20030;-53
2022/04/02 05:47:50;;;;;;;2.47;0.60;;;17.20;50.50;;;;;;10392411;28;20474;-50
2022/04/02 05:52:51;;;;;;;2.75;0.70;;;17.10;50.70;;;;;;10388510;28;20518;-52
2022/04/02 05:57:52;;;;;;;7.70;0.90;;;17.30;51.10;;;;;;10379419;28;20109;-53
2022/04/02 06:02:53;;;;;;;9.88;2.35;;;17.30;51.60;;;;;;10382213;28;20167;-52
2022/04/02 06:07:53;;;;;;;10.98;1.40;;;17.30;53.00;;;;;;10394524;28;20022;-52
2022/04/02 06:12:54;;;;;;;9.63;1.80;;;17.20;52.50;;;;;;10413462;28;20064;-50
2022/04/02 06:17:55;;;;;;;10.77;1.35;;;17.10;52.90;;;;;;10398496;28;20385;-52
2022/04/02 06:22:56;;;;;;;11.40;1.58;;;17.10;53.00;;;;;;10416023;28;20143;-52
2022/04/02 06:27:57;;;;;;;10.25;1.70;;;17.10;53.20;;;;;;10395949;28;20061;-51
2022/04/02 06:32:57;;;;;;;14.65;2.35;;;17.00;53.10;;;;;;10379834;28;20026;-48
2022/04/02 06:37:58;;;;;;;11.90;2.33;;;17.10;54.10;;;;;;10406232;28;20034;-51
2022/04/02 06:42:59;;;;;;;14.00;1.90;;;17.30;53.60;;;;;;10399739;28;20600;-49
2022/04/02 06:47:59;;;;;;;8.93;1.58;;;17.50;53.60;;;;;;10407534;28;20119;-52
2022/04/02 06:53:00;;;;;;;20.80;2.33;;;17.50;53.50;;;;;;10410068;28;20546;-51
2022/04/02 06:58:01;;;;;;;8.80;1.85;;;17.40;54.40;;;;;;10385301;28;20033;-52
2022/04/02 07:03:02;;;;;;;15.55;2.60;;;17.30;53.80;;;;;;10380027;28;20029;-54
2022/04/02 07:08:03;;;;;;;14.40;2.25;;;17.30;53.70;;;;;;10409478;28;20548;-52
2022/04/02 07:13:04;;;;;;;13.70;2.95;;;17.30;53.90;;;;;;10408178;28;20432;-53
2022/04/02 07:18:10;;;;;;;14.65;2.13;;;17.30;53.80;;;;;;10390851;28;20115;-53
2022/04/02 07:23:12;;;;;;;17.58;2.88;;;17.20;53.70;;;;;;10391556;28;20362;-58
2022/04/02 07:28:13;;;;;;;21.92;3.85;;;17.10;53.50;;;;;;10412965;28;20080;-54
2022/04/02 07:33:14;;;;;;;22.45;4.20;;;17.00;53.70;;;;;;10375906;28;20037;-54
2022/04/02 07:38:26;;;;;;;24.85;4.78;;;17.10;54.70;;;;;;10379657;28;20490;-54
2022/04/02 07:43:47;;;;;;;29.52;5.38;;;17.00;53.90;;;;;;10383128;28;20030;-54
2022/04/02 07:48:49;;;;;;;19.23;4.38;;;17.00;53.20;;;;;;10380118;28;20041;-53
2022/04/02 07:53:54;;;;;;;14.68;3.60;;;17.10;52.40;;;;;;10390662;28;20521;-51
2022/04/02 07:59:07;;;;;;;10.85;3.45;;;17.10;52.20;;;;;;10366245;28;20087;-50
2022/04/02 08:04:11;;;;;;;14.15;3.40;;;17.10;51.80;;;;;;10367445;28;20049;-52
2022/04/02 08:09:13;;;;;;;10.32;2.33;;;17.00;51.30;;;;;;10373441;28;20087;-53
2022/04/02 08:14:14;;;;;;;14.25;2.80;;;16.90;50.90;;;;;;10369677;28;20049;-52
2022/04/02 08:19:22;;;;;;;18.73;4.40;;;17.00;50.80;;;;;;10391003;28;20393;-54
2022/04/02 08:24:22;;;;;;;26.15;3.65;;;17.20;50.80;;;;;;10381144;28;20478;-50
2022/04/02 08:29:47;;;;;;;23.38;4.63;;;17.00;50.50;;;;;;10371365;28;20057;-53
2022/04/02 08:35:08;;;;;;;13.23;3.05;;;16.90;51.00;;;;;;10381517;28;20080;-55
2022/04/02 08:40:08;;;;;;;17.60;4.03;;;16.90;50.80;;;;;;10395403;28;20037;-54
2022/04/02 08:45:11;;;;;;;16.50;4.57;;;17.10;51.40;;;;;;10395548;28;20433;-54
2022/04/02 08:50:14;;;;;;;20.38;3.70;;;17.00;52.10;;;;;;10373256;28;20123;-54
2022/04/02 08:55:19;;;;;;;15.52;2.92;;;16.90;51.70;;;;;;10398399;28;20120;-52
2022/04/02 09:00:26;;;;;;;14.15;3.13;;;17.00;51.60;;;;;;10398548;28;20037;-52
2022/04/02 09:06:05;;;;;;;13.80;3.05;;;17.00;51.70;;;;;;10393233;28;20066;-54
2022/04/02 09:11:23;;;;;;;12.45;3.80;;;16.90;51.90;;;;;;10371964;28;20502;-52
2022/04/02 09:17:27;;;;;;;9.18;2.65;;;16.80;52.00;;;;;;10389935;28;20041;-53
2022/04/02 09:22:38;;;;;;;14.07;2.92;;;16.80;52.30;;;;;;10404095;28;20056;-52
2022/04/02 09:28:33;;;;;;;14.05;3.00;;;16.80;53.10;;;;;;10365076;28;20033;-53
2022/04/02 09:34:13;;;;;;;8.88;4.30;;;16.90;52.50;;;;;;10412515;28;20052;-51
2022/04/02 09:39:30;;;;;;;12.38;2.40;;;17.00;52.70;;;;;;10366686;28;20045;-49
2022/04/02 09:45:03;;;;;;;11.10;2.65;;;17.10;52.80;;;;;;10419965;28;20060;-52
2022/04/02 09:50:28;;;;;;;11.18;2.78;;;17.10;52.60;;;;;;10414575;28;20061;-52
2022/04/02 09:55:51;;;;;;;13.60;3.92;;;17.30;53.10;;;;;;10378686;28;20092;-54
2022/04/02 10:01:05;;;;;;;10.52;2.70;;;17.20;52.80;;;;;;10352704;28;20025;-53
2022/04/02 10:06:18;;;;;;;16.15;2.78;;;17.20;53.00;;;;;;10407113;28;20118;-54
2022/04/02 10:11:24;;;;;;;24.13;3.13;;;17.30;53.50;;;;;;10375636;28;20052;-53
2022/04/02 10:16:26;;;;;;;18.05;3.67;;;17.30;53.40;;;;;;10379661;28;20045;-51
2022/04/02 10:21:31;;;;;;;16.67;3.90;;;17.30;53.30;;;;;;10418473;28;20075;-51
2022/04/02 10:26:40;;;;;;;18.45;3.58;;;17.30;53.50;;;;;;10417662;28;20041;-53
2022/04/02 10:32:06;;;;;;;21.45;3.85;;;17.30;53.60;;;;;;10417353;28;20433;-50
2022/04/02 10:37:16;;;;;;;18.33;3.47;;;17.20;54.00;;;;;;10411459;28;20083;-48
2022/04/02 10:42:19;;;;;;;16.73;4.20;;;17.20;53.80;;;;;;10372528;28;20099;-48
2022/04/02 10:47:26;;;;;;;23.75;3.45;;;17.40;53.90;;;;;;10375044;28;20112;-49
2022/04/02 10:52:28;;;;;;;12.27;2.60;;;17.40;54.10;;;;;;10370108;28;20614;-47
2022/04/02 10:57:32;;;;;;;13.18;3.45;;;17.40;54.00;;;;;;10368563;28;20033;-51
2022/04/02 11:02:43;;;;;;;17.80;3.45;;;17.20;54.30;;;;;;10415237;28;20040;-51
2022/04/02 11:07:48;;;;;;;13.10;2.75;;;17.20;53.80;;;;;;10390545;28;20038;-53
2022/04/02 11:13:00;;;;;;;75.15;41.40;;;17.40;53.90;;;;;;10380687;28;20084;-52
2022/04/02 11:18:01;;;;;;;71.82;33.65;;;17.50;55.80;;;;;;10381930;28;20042;-54
2022/04/02 11:23:37;;;;;;;62.72;27.80;;;17.70;55.40;;;;;;10405615;28;20060;-50
2022/04/02 11:28:44;;;;;;;59.33;25.08;;;18.00;55.00;;;;;;10416787;28;20021;-48
2022/04/02 11:33:51;;;;;;;45.58;19.95;;;18.10;55.20;;;;;;10369872;28;20037;-53
2022/04/02 11:39:01;;;;;;;40.97;20.80;;;17.90;54.60;;;;;;10391236;28;20389;-56
2022/04/02 11:44:15;;;;;;;44.60;18.98;;;18.00;54.50;;;;;;10381036;28;20486;-49
2022/04/02 11:49:26;;;;;;;48.33;19.33;;;18.20;54.50;;;;;;10378127;28;20056;-52
2022/04/02 11:54:28;;;;;;;39.60;17.25;;;18.20;55.10;;;;;;10396491;28;20083;-54
2022/04/02 11:59:30;;;;;;;40.92;15.35;;;18.10;54.80;;;;;;10381401;28;20508;-51
2022/04/02 12:04:31;;;;;;;43.47;16.67;;;17.80;54.60;;;;;;10371843;28;20053;-51
2022/04/02 12:09:33;;;;;;;54.72;15.90;;;18.00;54.50;;;;;;10383104;28;20072;-51
2022/04/02 12:14:39;;;;;;;41.33;16.55;;;18.10;55.10;;;;;;10377594;28;20470;-52
2022/04/02 12:19:46;;;;;;;39.47;14.20;;;17.90;55.70;;;;;;10371340;28;20430;-51
2022/04/02 12:24:53;;;;;;;33.95;14.00;;;17.90;55.40;;;;;;10392066;28;20037;-50
2022/04/02 12:29:57;;;;;;;36.60;13.63;;;17.80;56.30;;;;;;10398872;28;20053;-52
2022/04/02 12:35:08;;;;;;;28.35;13.18;;;17.60;56.60;;;;;;10405839;28;20029;-50
2022/04/02 12:40:20;;;;;;;47.95;13.35;;;17.60;56.90;;;;;;10405294;28;20079;-51
2022/04/02 12:45:27;;;;;;;44.80;14.20;;;17.70;56.90;;;;;;10373395;28;20030;-52
2022/04/02 12:50:37;;;;;;;41.80;12.18;;;17.80;57.20;;;;;;10382064;28;20021;-51
2022/04/02 12:55:38;;;;;;;59.13;19.13;;;17.90;57.90;;;;;;10388716;28;20041;-49
2022/04/02 13:00:43;;;;;;;49.58;17.33;;;17.90;59.00;;;;;;10402639;28;20025;-52
2022/04/02 13:05:52;;;;;;;71.85;17.50;;;18.00;58.90;;;;;;10413169;28;20116;-49
2022/04/02 13:10:57;;;;;;;58.92;18.42;;;18.00;59.10;;;;;;10388029;28;20153;-51
2022/04/02 13:16:01;;;;;;;45.88;13.82;;;18.10;59.50;;;;;;10373107;28;20034;-48
2022/04/02 13:21:06;;;;;;;53.47;13.70;;;18.20;59.40;;;;;;10375500;28;20041;-54
2022/04/02 13:26:12;;;;;;;47.53;14.52;;;18.10;59.60;;;;;;10369325;28;20474;-47
2022/04/02 13:31:17;;;;;;;49.60;13.07;;;18.10;60.30;;;;;;10384606;28;20040;-50
2022/04/02 13:36:34;;;;;;;53.75;13.85;;;18.20;60.30;;;;;;10378015;28;20038;-48
2022/04/02 13:41:38;;;;;;;42.53;11.25;;;18.30;60.20;;;;;;10385992;28;20034;-50
2022/04/02 13:46:47;;;;;;;46.28;11.48;;;18.20;59.80;;;;;;10386689;28;20022;-50
2022/04/02 13:51:57;;;;;;;26.70;11.60;;;18.20;59.30;;;;;;10387279;28;20379;-50
2022/04/02 13:57:02;;;;;;;40.97;10.18;;;18.20;58.80;;;;;;10372017;28;20788;-51
2022/04/02 14:02:05;;;;;;;30.77;9.90;;;18.10;58.30;;;;;;10385637;28;20037;-51
2022/04/02 14:07:08;;;;;;;31.45;8.25;;;18.00;59.30;;;;;;10371372;28;20030;-50
2022/04/02 14:12:10;;;;;;;33.20;8.43;;;18.00;58.80;;;;;;10372665;28;20046;-50
2022/04/02 14:17:15;;;;;;;38.08;11.02;;;18.00;58.90;;;;;;10383370;28;20041;-50
2022/04/02 14:22:21;;;;;;;42.75;9.70;;;18.00;59.60;;;;;;10376011;28;20026;-55
2022/04/02 14:27:58;;;;;;;36.35;8.23;;;17.90;59.80;;;;;;10408712;28;20034;-50
2022/04/02 14:33:33;;;;;;;42.47;9.43;;;17.90;60.30;;;;;;10384608;28;20060;-49
2022/04/02 14:39:03;;;;;;;46.88;9.95;;;18.00;60.60;;;;;;10391732;28;20481;-51
2022/04/02 14:44:44;;;;;;;38.90;10.15;;;17.80;60.90;;;;;;10380739;28;20030;-53
2022/04/02 14:50:32;;;;;;;34.17;7.90;;;17.60;61.10;;;;;;10368126;28;20120;-47
2022/04/02 14:56:26;;;;;;;27.73;7.53;;;17.50;61.40;;;;;;10375377;28;20121;-53
2022/04/02 15:02:07;;;;;;;30.63;7.30;;;17.50;61.80;;;;;;10401670;28;20034;-50
2022/04/02 15:07:48;;;;;;;23.92;6.72;;;17.70;60.10;;;;;;10396198;28;20029;-47
2022/04/02 15:12:55;;;;;;;23.90;5.45;;;17.70;58.10;;;;;;10349780;28;20121;-52
2022/04/02 15:18:01;;;;;;;24.27;5.20;;;17.70;57.60;;;;;;10359089;28;20041;-49
2022/04/02 15:23:08;;;;;;;17.85;5.03;;;17.80;58.40;;;;;;10385271;28;20044;-49
2022/04/02 15:28:17;;;;;;;19.33;4.88;;;17.90;57.50;;;;;;10390318;28;20040;-49
2022/04/02 15:33:25;;;;;;;20.13;6.07;;;18.00;57.80;;;;;;10371796;28;20026;-54
2022/04/02 15:38:26;;;;;;;21.92;5.35;;;18.10;59.20;;;;;;10375885;28;20042;-50
2022/04/02 15:43:33;;;;;;;26.95;6.45;;;18.20;57.70;;;;;;10390690;28;20033;-53
2022/04/02 15:49:12;;;;;;;18.10;4.72;;;18.30;59.10;;;;;;10384627;28;20061;-52
2022/04/02 15:54:26;;;;;;;15.40;4.95;;;18.30;61.20;;;;;;10384500;28;20084;-55
2022/04/02 15:59:27;;;;;;;22.27;5.20;;;18.20;61.60;;;;;;10395361;28;20036;-51
2022/04/02 16:04:28;;;;;;;21.23;4.93;;;18.20;62.20;;;;;;10414853;28;20065;-47
2022/04/02 16:10:13;;;;;;;19.60;3.85;;;18.20;62.50;;;;;;10391503;28;20088;-48
2022/04/02 16:15:22;;;;;;;17.95;3.90;;;18.30;62.60;;;;;;10393297;28;20022;-51
2022/04/02 16:20:26;;;;;;;22.77;5.73;;;18.40;62.30;;;;;;10374107;28;20034;-48
2022/04/02 16:25:27;;;;;;;33.78;6.07;;;18.30;61.80;;;;;;10411791;28;20114;-50
2022/04/02 16:30:28;;;;;;;20.30;4.43;;;18.20;61.50;;;;;;10385395;28;20083;-52
2022/04/02 16:35:29;;;;;;;22.65;4.85;;;18.10;61.40;;;;;;10414227;28;20030;-50
2022/04/02 16:40:30;;;;;;;16.63;4.43;;;18.00;61.90;;;;;;10413386;28;20045;-50
2022/04/02 16:45:31;;;;;;;22.65;4.80;;;18.00;61.00;;;;;;10413355;28;20029;-51
2022/04/02 16:50:32;;;;;;;16.98;4.15;;;18.00;61.60;;;;;;10412977;28;20355;-49
2022/04/02 16:55:33;;;;;;;23.15;4.18;;;17.90;61.40;;;;;;10384148;28;20427;-48
2022/04/02 17:00:33;;;;;;;19.38;4.65;;;17.70;62.20;;;;;;10372986;28;20117;-49
2022/04/02 17:05:40;;;;;;;21.63;5.28;;;17.60;61.00;;;;;;10405390;28;20503;-49
2022/04/02 17:10:48;;;;;;;20.02;4.20;;;17.70;60.60;;;;;;10401454;28;20136;-50
2022/04/02 17:16:05;;;;;;;21.40;4.85;;;17.80;60.10;;;;;;10355149;28;20053;-50
2022/04/02 17:21:09;;;;;;;12.93;3.10;;;17.80;59.90;;;;;;10370006;28;20450;-50
2022/04/02 17:26:29;;;;;;;15.35;3.95;;;17.80;59.50;;;;;;10369335;28;20034;-52
2022/04/02 17:31:32;;;;;;;11.30;3.17;;;17.80;59.40;;;;;;10369759;28;20117;-47
2022/04/02 17:36:33;;;;;;;13.75;2.80;;;17.80;58.80;;;;;;10382145;28;20466;-52
2022/04/02 17:41:35;;;;;;;10.48;2.72;;;17.90;59.00;;;;;;10389938;28;20118;-47
2022/04/02 17:46:37;;;;;;;12.73;3.20;;;17.90;58.80;;;;;;10394796;28;20091;-48
2022/04/02 17:51:39;;;;;;;11.63;3.20;;;17.90;58.40;;;;;;10389506;28;20030;-48
2022/04/02 17:56:39;;;;;;;9.30;2.88;;;17.90;58.00;;;;;;10375265;28;20390;-50
2022/04/02 18:01:41;;;;;;;7.65;3.05;;;17.90;57.90;;;;;;10381765;28;20056;-52
2022/04/02 18:06:49;;;;;;;10.07;2.05;;;17.90;57.80;;;;;;10381432;28;20029;-49
2022/04/02 18:11:50;;;;;;;5.00;2.13;;;18.00;57.50;;;;;;10391867;28;20053;-48
2022/04/02 18:16:50;;;;;;;6.40;1.67;;;18.00;57.50;;;;;;10394204;28;20064;-48
2022/04/02 18:21:51;;;;;;;9.23;1.98;;;17.90;57.30;;;;;;10395486;28;20056;-50
2022/04/02 18:26:52;;;;;;;8.57;1.95;;;18.00;57.30;;;;;;10378278;28;20038;-51
2022/04/02 18:31:53;;;;;;;10.52;2.47;;;17.90;57.40;;;;;;10393471;28;20061;-51
2022/04/02 18:36:53;;;;;;;8.57;2.00;;;18.00;57.10;;;;;;10379090;28;20052;-52
2022/04/02 18:41:55;;;;;;;5.60;2.80;;;18.00;56.90;;;;;;10388274;28;20053;-52
2022/04/02 18:46:56;;;;;;;5.78;1.38;;;18.00;57.30;;;;;;10377736;28;20033;-47
2022/04/02 18:51:57;;;;;;;6.10;1.65;;;18.00;56.90;;;;;;10389651;28;20034;-51
2022/04/02 18:56:58;;;;;;;7.45;1.90;;;18.00;56.90;;;;;;10376545;28;20038;-50
2022/04/02 19:01:58;;;;;;;7.22;1.35;;;17.90;56.80;;;;;;10388180;28;20087;-50
2022/04/02 19:06:59;;;;;;;4.03;1.48;;;17.90;56.80;;;;;;10392481;28;20163;-53
2022/04/02 19:12:00;;;;;;;5.45;1.80;;;18.00;57.10;;;;;;10375033;28;20034;-51
2022/04/02 19:17:01;;;;;;;5.80;1.50;;;17.90;56.90;;;;;;10398942;28;20061;-50
2022/04/02 19:22:04;;;;;;;5.55;1.17;;;17.80;56.50;;;;;;10414087;28;20044;-50
2022/04/02 19:27:05;;;;;;;6.20;1.42;;;17.70;56.50;;;;;;10399408;28;20045;-52
2022/04/02 19:32:06;;;;;;;4.72;1.85;;;17.60;56.40;;;;;;10383944;28;20115;-50
2022/04/02 19:37:07;;;;;;;4.35;1.10;;;17.60;56.40;;;;;;10387321;28;20394;-52
2022/04/02 19:42:08;;;;;;;2.05;1.10;;;17.50;56.40;;;;;;10392695;28;20036;-53
2022/04/02 19:47:08;;;;;;;6.00;1.00;;;17.40;55.90;;;;;;10385055;28;20037;-54
2022/04/02 19:52:09;;;;;;;3.17;1.10;;;17.30;55.80;;;;;;10411959;28;20053;-53
2022/04/02 19:57:10;;;;;;;1.83;0.80;;;17.30;55.70;;;;;;10381414;28;20501;-52
2022/04/02 20:02:10;;;;;;;2.90;0.90;;;17.20;55.50;;;;;;10403393;28;20041;-52
2022/04/02 20:07:11;;;;;;;2.83;0.90;;;17.10;55.40;;;;;;10414680;28;20129;-53
2022/04/02 20:12:12;;;;;;;3.05;0.98;;;17.10;55.20;;;;;;10415284;28;20052;-52
2022/04/02 20:17:13;;;;;;;2.60;1.10;;;17.00;55.20;;;;;;10397045;28;20025;-52
2022/04/02 20:22:14;;;;;;;4.30;1.02;;;17.00;59.90;;;;;;10414914;28;20489;-54
2022/04/02 20:27:17;;;;;;;2.17;1.02;;;17.00;60.80;;;;;;10385279;28;20030;-53
2022/04/02 20:32:18;;;;;;;3.42;0.93;;;17.00;59.70;;;;;;10410512;28;20040;-54
2022/04/02 20:37:18;;;;;;;3.15;1.08;;;17.00;59.10;;;;;;10399842;28;20029;-54
2022/04/02 20:42:20;;;;;;;3.53;1.08;;;16.90;58.80;;;;;;10414387;28;20057;-53
2022/04/02 20:47:21;;;;;;;2.45;1.00;;;16.90;58.60;;;;;;10378877;28;20418;-53
2022/04/02 20:52:23;;;;;;;4.13;1.48;;;16.80;58.20;;;;;;10373353;28;20065;-53
2022/04/02 20:57:24;;;;;;;2.25;0.75;;;16.80;57.90;;;;;;10386263;28;20040;-52
2022/04/02 21:02:24;;;;;;;3.55;1.00;;;16.80;57.50;;;;;;10397522;28;20034;-52
2022/04/02 21:07:25;;;;;;;3.10;1.00;;;16.80;57.30;;;;;;10412627;28;20083;-50
2022/04/02 21:12:26;;;;;;;2.08;0.90;;;16.80;57.00;;;;;;10413162;28;20127;-49
2022/04/02 21:17:27;;;;;;;3.22;1.42;;;16.80;56.50;;;;;;10411937;28;20046;-50
2022/04/02 21:22:30;;;;;;;3.22;0.90;;;16.90;56.20;;;;;;10413353;28;20044;-53
2022/04/02 21:27:30;;;;;;;1.40;0.60;;;17.00;55.40;;;;;;10408874;28;20300;-54
2022/04/02 21:32:31;;;;;;;1.70;1.10;;;16.90;55.30;;;;;;10362618;28;20061;-51
2022/04/02 21:37:32;;;;;;;2.97;1.02;;;16.90;54.70;;;;;;10412294;28;20040;-54
2022/04/02 21:42:34;;;;;;;2.60;0.98;;;16.90;54.40;;;;;;10421242;28;20033;-56
2022/04/02 21:47:34;;;;;;;2.08;0.80;;;17.00;54.20;;;;;;10419525;28;20389;-53
2022/04/02 21:52:35;;;;;;;2.17;1.10;;;17.00;53.90;;;;;;10376946;28;20041;-53
2022/04/02 21:57:36;;;;;;;2.30;0.85;;;17.00;53.80;;;;;;10363725;28;20513;-52
2022/04/02 22:02:37;;;;;;;2.85;0.95;;;17.00;53.60;;;;;;10401860;28;20377;-52
2022/04/02 22:07:37;;;;;;;1.88;0.80;;;17.00;53.50;;;;;;10418671;28;20065;-50
2022/04/02 22:12:38;;;;;;;2.90;0.98;;;17.00;53.30;;;;;;10389812;28;20069;-53
2022/04/02 22:17:39;;;;;;;2.47;0.90;;;17.00;53.10;;;;;;10379058;28;20161;-53
2022/04/02 22:22:39;;;;;;;1.80;1.15;;;17.00;52.90;;;;;;10379067;28;20068;-53
2022/04/02 22:27:40;;;;;;;2.42;1.00;;;17.00;52.60;;;;;;10378575;28;20573;-48
2022/04/02 22:32:41;;;;;;;1.67;0.90;;;17.00;52.50;;;;;;10409924;28;20057;-54
2022/04/02 22:37:42;;;;;;;1.88;0.98;;;17.00;52.40;;;;;;10385295;28;20055;-52
2022/04/02 22:42:43;;;;;;;2.13;1.33;;;16.90;52.20;;;;;;10377478;28;20140;-53
2022/04/02 22:47:43;;;;;;;2.85;1.00;;;16.90;52.20;;;;;;10377822;28;20140;-51
2022/04/02 22:52:44;;;;;;;2.00;0.82;;;16.90;52.10;;;;;;10377600;28;20492;-49
2022/04/02 22:57:45;;;;;;;3.22;1.27;;;17.00;52.00;;;;;;10377589;28;20029;-54
2022/04/02 23:02:46;;;;;;;1.65;0.90;;;16.90;51.90;;;;;;10397973;28;20656;-53
2022/04/02 23:07:47;;;;;;;4.80;2.30;;;16.90;51.60;;;;;;10389364;28;20116;-53
2022/04/02 23:12:48;;;;;;;1.75;0.90;;;16.90;51.70;;;;;;10377102;28;20030;-52
2022/04/02 23:17:49;;;;;;;2.13;0.80;;;16.90;51.60;;;;;;10371466;28;20030;-50
2022/04/02 23:22:50;;;;;;;2.97;1.13;;;16.90;51.40;;;;;;10389389;28;20117;-53
2022/04/02 23:27:50;;;;;;;1.35;0.85;;;16.90;51.30;;;;;;10389877;28;20065;-52
2022/04/02 23:32:51;;;;;;;2.17;1.00;;;16.90;51.20;;;;;;10409860;28;20044;-51
2022/04/02 23:37:52;;;;;;;2.28;1.30;;;16.90;51.10;;;;;;10381257;28;20069;-50
2022/04/02 23:42:53;;;;;;;1.65;0.98;;;16.90;51.00;;;;;;10398352;28;20377;-52
2022/04/02 23:47:54;;;;;;;2.67;1.00;;;16.90;50.80;;;;;;10373831;28;20028;-53
2022/04/02 23:52:56;;;;;;;1.00;0.60;;;16.90;50.70;;;;;;10374393;28;20109;-52
2022/04/02 23:57:56;;;;;;;2.35;0.93;;;16.90;50.60;;;;;;10388017;28;20493;-53
